createdAt,value
2017-10-04T00:01:59.888Z,98983.02
2017-10-04T00:04:28.151Z,98980.45
2017-10-04T00:06:57.178Z,98985.19
2017-10-04T00:09:25.413Z,98980.44
2017-10-04T00:11:54.423Z,98975.41
2017-10-04T00:14:22.684Z,98974.50
2017-10-04T00:16:50.935Z,98981.98
2017-10-04T00:19:19.179Z,98983.27
2017-10-04T00:21:47.422Z,98989.73
2017-10-04T00:24:15.671Z,98990.08
2017-10-04T00:26:43.905Z,98989.92
2017-10-04T00:29:12.154Z,98986.38
2017-10-04T00:31:40.399Z,98982.02
2017-10-04T00:34:09.409Z,98974.59
2017-10-04T00:36:37.651Z,98969.05
2017-10-04T00:39:05.895Z,98969.06
2017-10-04T00:41:34.140Z,98971.59
2017-10-04T00:44:02.390Z,98977.48
2017-10-04T00:46:31.389Z,98974.47
2017-10-04T00:49:00.398Z,98978.77
2017-10-04T00:51:28.645Z,98967.34
2017-10-04T00:53:56.894Z,98972.48
2017-10-04T00:56:25.139Z,98966.84
2017-10-04T00:58:53.385Z,98965.05
2017-10-04T01:01:22.385Z,98974.33
2017-10-04T01:03:50.629Z,98977.44
2017-10-04T01:06:18.875Z,98982.83
2017-10-04T01:08:47.126Z,98990.05
2017-10-04T01:11:15.409Z,98998.67
2017-10-04T01:13:43.664Z,99000.83
2017-10-04T01:16:12.668Z,98998.25
2017-10-04T01:18:40.911Z,99002.00
2017-10-04T01:21:09.147Z,98992.30
2017-10-04T01:23:37.385Z,98996.34
2017-10-04T01:26:05.626Z,98987.83
2017-10-04T01:28:33.861Z,98984.34
2017-10-04T01:31:02.106Z,98974.28
2017-10-04T01:33:30.349Z,98971.95
2017-10-04T01:35:58.596Z,98974.51
2017-10-04T01:38:26.834Z,98978.84
2017-10-04T01:40:55.083Z,98976.98
2017-10-04T01:43:23.379Z,98978.64
2017-10-04T01:45:52.388Z,98970.83
2017-10-04T01:48:20.626Z,98969.72
2017-10-04T01:50:48.877Z,98981.59
2017-10-04T01:53:17.110Z,98973.94
2017-10-04T01:55:45.354Z,98980.36
2017-10-04T01:58:13.592Z,98976.31
2017-10-04T02:00:41.838Z,98987.16
2017-10-04T02:03:10.074Z,98986.81
2017-10-04T02:05:38.324Z,98984.84
2017-10-04T02:08:06.581Z,98992.39
2017-10-04T02:10:34.809Z,98988.84
2017-10-04T02:13:03.822Z,98985.05
2017-10-04T02:15:32.072Z,98985.23
2017-10-04T02:18:01.093Z,98989.59
2017-10-04T02:20:29.339Z,98990.25
2017-10-04T02:22:57.578Z,98985.55
2017-10-04T02:25:25.821Z,98980.80
2017-10-04T02:27:54.061Z,98984.86
2017-10-04T02:30:22.302Z,98991.31
2017-10-04T02:32:50.542Z,98990.80
2017-10-04T02:35:18.782Z,98992.37
2017-10-04T02:37:47.030Z,98985.25
2017-10-04T02:40:15.273Z,98980.59
2017-10-04T02:42:43.506Z,98979.19
2017-10-04T02:45:11.769Z,98967.72
2017-10-04T02:47:40.023Z,98974.53
2017-10-04T02:50:08.265Z,98965.72
2017-10-04T02:52:36.509Z,98971.58
2017-10-04T02:55:04.766Z,98969.88
2017-10-04T02:57:33.001Z,98976.03
2017-10-04T03:00:01.254Z,98971.34
2017-10-04T03:02:29.493Z,98973.98
2017-10-04T03:04:57.740Z,98977.39
2017-10-04T03:07:25.970Z,98981.86
2017-10-04T03:09:54.213Z,98970.89
2017-10-04T03:12:22.461Z,98968.48
2017-10-04T03:14:50.705Z,98975.61
2017-10-04T03:17:19.713Z,98970.50
2017-10-04T03:19:47.957Z,98973.57
2017-10-04T03:22:16.197Z,98978.98
2017-10-04T03:24:44.441Z,98976.09
2017-10-04T03:27:12.681Z,98976.83
2017-10-04T03:29:40.930Z,98978.98
2017-10-04T03:32:09.166Z,98987.37
2017-10-04T03:34:37.413Z,98989.49
2017-10-04T03:37:06.417Z,98990.28
2017-10-04T03:39:35.433Z,98994.72
2017-10-04T03:42:03.677Z,98994.52
2017-10-04T03:44:31.926Z,98991.75
2017-10-04T03:47:00.154Z,98979.77
2017-10-04T03:49:28.389Z,98982.46
2017-10-04T03:51:56.636Z,98969.25
2017-10-04T03:54:24.874Z,98966.80
2017-10-04T03:56:53.126Z,98968.27
2017-10-04T03:59:21.369Z,98968.25
2017-10-04T04:01:50.467Z,98962.67
2017-10-04T04:04:18.705Z,98960.66
2017-10-04T04:06:46.961Z,98960.94
2017-10-04T04:09:15.965Z,98952.39
2017-10-04T04:11:44.218Z,98944.83
2017-10-04T04:14:13.218Z,98942.30
2017-10-04T04:16:42.246Z,98939.55
2017-10-04T04:19:10.476Z,98940.73
2017-10-04T04:21:38.725Z,98941.16
2017-10-04T04:24:06.970Z,98938.56
2017-10-04T04:26:35.219Z,98933.83
2017-10-04T04:29:04.232Z,98936.91
2017-10-04T04:31:32.473Z,98940.63
2017-10-04T04:34:01.493Z,98949.73
2017-10-04T04:36:29.745Z,98948.77
2017-10-04T04:39:00.681Z,98953.97
2017-10-04T04:41:29.709Z,98946.42
2017-10-04T04:43:57.960Z,98948.98
2017-10-04T04:46:26.973Z,98955.16
2017-10-04T04:48:55.213Z,98943.36
2017-10-04T04:51:24.240Z,98946.99
2017-10-04T04:53:52.491Z,98938.91
2017-10-04T04:56:21.507Z,98941.77
2017-10-04T04:58:49.755Z,98944.82
2017-10-04T05:01:18.000Z,98943.48
2017-10-04T05:03:46.250Z,98950.43
2017-10-04T05:06:14.510Z,98941.83
2017-10-04T05:08:42.748Z,98940.98
2017-10-04T05:11:11.775Z,98939.82
2017-10-04T05:13:40.018Z,98937.12
2017-10-04T05:16:09.038Z,98935.09
2017-10-04T05:18:37.286Z,98933.40
2017-10-04T05:21:05.526Z,98939.85
2017-10-04T05:23:33.769Z,98937.20
2017-10-04T05:26:02.015Z,98943.59
2017-10-04T05:28:30.257Z,98932.58
2017-10-04T05:30:58.522Z,98934.63
2017-10-04T05:33:26.758Z,98929.25
2017-10-04T05:35:55.014Z,98918.51
2017-10-04T05:38:24.024Z,98924.92
2017-10-04T05:40:53.041Z,98926.14
2017-10-04T05:43:21.418Z,98934.34
2017-10-04T05:45:49.674Z,98933.52
2017-10-04T05:48:17.916Z,98935.16
2017-10-04T05:50:46.161Z,98932.22
2017-10-04T05:53:14.413Z,98929.34
2017-10-04T05:55:42.694Z,98930.18
2017-10-04T05:58:10.947Z,98924.84
2017-10-04T06:00:39.960Z,98934.38
2017-10-04T06:03:08.221Z,98934.47
2017-10-04T06:05:36.476Z,98939.28
2017-10-04T06:08:05.494Z,98946.10
2017-10-04T06:10:33.742Z,98941.95
2017-10-04T06:13:02.763Z,98943.39
2017-10-04T06:15:31.012Z,98926.50
2017-10-04T06:18:00.031Z,98937.00
2017-10-04T06:20:28.280Z,98927.09
2017-10-04T06:22:57.286Z,98933.17
2017-10-04T06:25:25.543Z,98934.63
2017-10-04T06:27:54.563Z,98927.97
2017-10-04T06:30:22.818Z,98921.45
2017-10-04T06:32:51.839Z,98925.42
2017-10-04T06:35:20.095Z,98932.91
2017-10-04T06:37:49.104Z,98937.08
2017-10-04T06:42:45.663Z,98938.68
2017-10-04T06:45:13.915Z,98936.66
2017-10-04T06:47:42.939Z,98927.80
2017-10-04T06:50:11.196Z,98928.60
2017-10-04T06:52:39.446Z,98934.69
2017-10-04T06:55:07.700Z,98932.77
2017-10-04T06:57:35.959Z,98935.37
2017-10-04T07:00:04.312Z,98948.38
2017-10-04T07:02:32.563Z,98947.13
2017-10-04T07:05:01.575Z,98953.59
2017-10-04T07:07:29.843Z,98952.57
2017-10-04T07:09:58.087Z,98937.19
2017-10-04T07:12:26.344Z,98937.84
2017-10-04T07:14:54.602Z,98939.76
2017-10-04T07:17:22.863Z,98941.02
2017-10-04T07:19:51.117Z,98935.90
2017-10-04T07:22:20.131Z,98944.84
2017-10-04T07:24:48.370Z,98924.63
2017-10-04T07:27:17.398Z,98939.22
2017-10-04T07:29:45.640Z,98932.11
2017-10-04T07:32:13.894Z,98934.65
2017-10-04T07:34:42.134Z,98932.33
2017-10-04T07:37:10.413Z,98934.98
2017-10-04T07:39:38.666Z,98936.92
2017-10-04T07:42:06.919Z,98936.07
2017-10-04T07:44:35.946Z,98930.72
2017-10-04T07:47:04.203Z,98939.23
2017-10-04T07:49:32.462Z,98934.00
2017-10-04T07:52:01.477Z,98932.23
2017-10-04T07:54:29.740Z,98929.31
2017-10-04T07:56:58.003Z,98919.75
2017-10-04T07:59:27.039Z,98922.22
2017-10-04T08:01:55.290Z,98927.33
2017-10-04T08:04:23.538Z,98929.33
2017-10-04T08:06:52.563Z,98932.16
2017-10-04T08:09:20.812Z,98924.36
2017-10-04T08:11:49.845Z,98922.93
2017-10-04T08:14:18.098Z,98927.06
2017-10-04T08:16:46.344Z,98926.65
2017-10-04T08:19:14.618Z,98918.14
2017-10-04T08:21:42.874Z,98916.69
2017-10-04T08:24:11.119Z,98917.59
2017-10-04T08:26:39.376Z,98918.53
2017-10-04T08:29:07.639Z,98931.28
2017-10-04T08:31:36.666Z,98922.92
2017-10-04T08:34:04.912Z,98931.79
2017-10-04T08:36:33.173Z,98924.30
2017-10-04T08:39:01.414Z,98934.89
2017-10-04T08:41:29.661Z,98919.10
2017-10-04T08:43:57.915Z,98906.38
2017-10-04T08:46:26.171Z,98921.01
2017-10-04T08:48:54.422Z,98913.89
2017-10-04T08:51:22.672Z,98919.13
2017-10-04T08:53:50.930Z,98905.57
2017-10-04T08:56:19.173Z,98895.17
2017-10-04T08:58:48.198Z,98892.94
2017-10-04T09:01:16.446Z,98885.00
2017-10-04T09:03:45.485Z,98895.50
2017-10-04T09:06:13.724Z,98883.45
2017-10-04T09:08:42.740Z,98879.72
2017-10-04T09:11:10.994Z,98892.03
2017-10-04T09:13:40.009Z,98900.00
2017-10-04T09:16:08.264Z,98897.63
2017-10-04T09:18:37.273Z,98899.46
2017-10-04T09:21:05.541Z,98902.53
2017-10-04T09:23:33.795Z,98900.31
2017-10-04T09:26:02.047Z,98893.34
2017-10-04T09:28:30.297Z,98880.59
2017-10-04T09:30:58.550Z,98879.87
2017-10-04T09:33:26.811Z,98886.08
2017-10-04T09:35:55.830Z,98880.06
2017-10-04T09:38:24.094Z,98878.23
2017-10-04T09:40:52.334Z,98869.81
2017-10-04T09:43:20.606Z,98875.97
2017-10-04T09:45:48.860Z,98884.05
2017-10-04T09:48:17.115Z,98865.91
2017-10-04T09:50:45.373Z,98858.13
2017-10-04T09:53:13.620Z,98843.73
2017-10-04T09:55:41.878Z,98847.20
2017-10-04T09:58:10.130Z,98849.24
2017-10-04T10:00:38.383Z,98838.23
2017-10-04T10:03:06.637Z,98835.64
2017-10-04T10:05:35.655Z,98833.04
2017-10-04T10:08:03.910Z,98839.39
2017-10-04T10:10:32.162Z,98833.71
2017-10-04T10:13:00.401Z,98826.11
2017-10-04T10:15:28.668Z,98827.59
2017-10-04T10:17:56.920Z,98831.08
2017-10-04T10:20:25.167Z,98834.98
2017-10-04T10:22:54.412Z,98842.93
2017-10-04T10:25:22.663Z,98846.34
2017-10-04T10:27:50.927Z,98829.52
2017-10-04T10:30:19.235Z,98829.55
2017-10-04T10:32:47.487Z,98817.58
2017-10-04T10:35:15.738Z,98814.92
2017-10-04T10:37:43.994Z,98818.34
2017-10-04T10:40:12.245Z,98815.84
2017-10-04T10:42:40.496Z,98826.45
2017-10-04T10:45:08.738Z,98812.86
2017-10-04T10:47:36.998Z,98812.92
2017-10-04T10:50:05.255Z,98801.38
2017-10-04T10:52:33.515Z,98798.77
2017-10-04T10:55:01.761Z,98825.31
2017-10-04T10:57:30.014Z,98794.91
2017-10-04T10:59:58.260Z,98806.11
2017-10-04T11:02:26.523Z,98812.53
2017-10-04T11:04:54.777Z,98815.50
2017-10-04T11:07:23.047Z,98809.52
2017-10-04T11:09:51.297Z,98796.63
2017-10-04T11:12:19.555Z,98800.46
2017-10-04T11:14:47.814Z,98806.53
2017-10-04T11:17:16.065Z,98795.86
2017-10-04T11:19:44.328Z,98796.66
2017-10-04T11:22:12.574Z,98796.27
2017-10-04T11:24:40.831Z,98795.22
2017-10-04T11:27:09.076Z,98786.82
2017-10-04T11:29:37.341Z,98790.59
2017-10-04T11:32:05.594Z,98781.67
2017-10-04T11:34:34.605Z,98761.54
2017-10-04T11:37:02.851Z,98769.56
2017-10-04T11:39:31.869Z,98772.38
2017-10-04T11:42:00.125Z,98773.20
2017-10-04T11:44:29.142Z,98764.55
2017-10-04T11:46:57.396Z,98765.93
2017-10-04T11:49:26.416Z,98765.72
2017-10-04T11:51:54.666Z,98767.84
2017-10-04T11:54:23.684Z,98749.02
2017-10-04T11:56:51.945Z,98752.66
2017-10-04T11:59:20.203Z,98738.91
2017-10-04T12:01:49.239Z,98740.30
2017-10-04T12:04:17.483Z,98739.28
2017-10-04T12:06:45.735Z,98745.50
2017-10-04T12:09:13.997Z,98744.65
2017-10-04T12:11:42.243Z,98746.56
2017-10-04T12:14:10.495Z,98745.27
2017-10-04T12:16:38.751Z,98762.75
2017-10-04T12:19:07.774Z,98740.94
2017-10-04T12:21:36.029Z,98732.58
2017-10-04T12:24:05.051Z,98734.42
2017-10-04T12:26:33.301Z,98727.61
2017-10-04T12:29:01.559Z,98720.49
2017-10-04T12:31:30.578Z,98733.63
2017-10-04T12:33:58.834Z,98727.59
2017-10-04T12:36:27.088Z,98736.41
2017-10-04T12:38:55.335Z,98736.74
2017-10-04T12:41:23.583Z,98726.37
2017-10-04T12:43:51.832Z,98726.34
2017-10-04T12:46:20.089Z,98736.08
2017-10-04T12:48:48.338Z,98750.08
2017-10-04T12:51:16.582Z,98750.98
2017-10-04T12:53:44.839Z,98762.34
2017-10-04T12:56:13.859Z,98736.27
2017-10-04T12:58:42.116Z,98722.81
2017-10-04T13:01:10.360Z,98695.59
2017-10-04T13:03:38.610Z,98690.91
2017-10-04T13:06:06.863Z,98703.73
2017-10-04T13:08:35.112Z,98697.09
2017-10-04T13:11:03.372Z,98715.84
2017-10-04T13:13:32.395Z,98680.73
2017-10-04T13:16:00.635Z,98681.63
2017-10-04T13:18:29.665Z,98672.77
2017-10-04T13:20:57.917Z,98671.03
2017-10-04T13:23:26.941Z,98676.83
2017-10-04T13:25:55.196Z,98679.51
2017-10-04T13:28:23.460Z,98668.30
2017-10-04T13:30:51.715Z,98657.83
2017-10-04T13:33:19.983Z,98667.58
2017-10-04T13:35:48.226Z,98661.25
2017-10-04T13:38:16.483Z,98651.64
2017-10-04T13:40:44.735Z,98671.25
2017-10-04T13:43:13.751Z,98669.72
2017-10-04T13:45:42.003Z,98664.84
2017-10-04T13:48:11.025Z,98644.96
2017-10-04T13:50:39.331Z,98639.64
2017-10-04T13:53:07.580Z,98644.80
2017-10-04T13:55:35.829Z,98651.30
2017-10-04T13:58:04.096Z,98637.92
2017-10-04T14:00:33.114Z,98641.93
2017-10-04T14:03:01.371Z,98648.34
2017-10-04T14:05:30.377Z,98635.70
2017-10-04T14:07:58.640Z,98631.18
2017-10-04T14:10:27.659Z,98629.06
2017-10-04T14:12:55.919Z,98630.20
2017-10-04T14:15:24.165Z,98619.55
2017-10-04T14:17:52.426Z,98624.38
2017-10-04T14:20:20.671Z,98623.52
2017-10-04T14:22:48.918Z,98621.05
2017-10-04T14:25:17.166Z,98630.05
2017-10-04T14:27:45.420Z,98638.66
2017-10-04T14:30:13.667Z,98638.22
2017-10-04T14:32:41.922Z,98652.77
2017-10-04T14:35:10.171Z,98639.55
2017-10-04T14:37:39.203Z,98639.97
2017-10-04T14:40:07.441Z,98641.25
2017-10-04T14:42:35.706Z,98627.98
2017-10-04T14:45:03.955Z,98639.52
2017-10-04T14:47:32.223Z,98642.16
2017-10-04T14:50:00.479Z,98630.59
2017-10-04T14:52:28.715Z,98638.30
2017-10-04T14:54:56.966Z,98638.73
2017-10-04T14:57:25.239Z,98627.19
2017-10-04T14:59:53.500Z,98625.47
2017-10-04T15:02:21.747Z,98616.94
2017-10-04T15:04:50.006Z,98617.78
2017-10-04T15:07:18.250Z,98610.92
2017-10-04T15:09:46.515Z,98606.67
2017-10-04T15:12:14.774Z,98615.22
2017-10-04T15:14:43.032Z,98609.23
2017-10-04T15:17:11.288Z,98604.53
2017-10-04T15:19:40.315Z,98608.36
2017-10-04T15:22:08.563Z,98601.96
2017-10-04T15:24:36.837Z,98603.23
2017-10-04T15:27:05.083Z,98592.98
2017-10-04T15:29:33.346Z,98617.78
2017-10-04T15:32:01.592Z,98613.06
2017-10-04T15:34:29.847Z,98613.08
2017-10-04T15:36:58.102Z,98620.77
2017-10-04T15:39:27.127Z,98627.63
2017-10-04T15:41:55.371Z,98623.34
2017-10-04T15:44:24.403Z,98625.89
2017-10-04T15:46:52.649Z,98613.91
2017-10-04T15:49:20.903Z,98626.30
2017-10-04T15:51:49.925Z,98630.58
2017-10-04T15:54:18.179Z,98622.48
2017-10-04T15:56:47.200Z,98609.20
2017-10-04T15:59:15.454Z,98602.80
2017-10-04T16:01:43.719Z,98605.73
2017-10-04T16:04:12.739Z,98621.54
2017-10-04T16:06:41.009Z,98618.98
2017-10-04T16:09:10.342Z,98629.22
2017-10-04T16:11:38.655Z,98613.86
2017-10-04T16:14:07.705Z,98608.30
2017-10-04T16:16:35.992Z,98612.57
2017-10-04T16:19:04.245Z,98605.27
2017-10-04T16:21:32.579Z,98597.16
2017-10-04T16:24:00.882Z,98595.86
2017-10-04T16:26:29.191Z,98603.16
2017-10-04T16:28:57.517Z,98608.23
2017-10-04T16:31:26.597Z,98615.09
2017-10-04T16:33:54.888Z,98623.62
2017-10-04T16:36:23.213Z,98620.20
2017-10-04T16:38:52.026Z,98612.92
2017-10-04T16:41:20.349Z,98614.61
2017-10-04T16:43:48.743Z,98622.73
2017-10-04T16:46:17.085Z,98613.75
2017-10-04T16:48:45.424Z,98610.75
2017-10-04T16:51:13.745Z,98610.75
2017-10-04T16:53:42.026Z,98614.99
2017-10-04T16:56:10.285Z,98614.10
2017-10-04T16:58:38.543Z,98611.97
2017-10-04T17:01:06.855Z,98610.28
2017-10-04T17:03:35.206Z,98608.98
2017-10-04T17:06:03.549Z,98609.41
2017-10-04T17:08:31.842Z,98606.02
2017-10-04T17:11:00.205Z,98596.59
2017-10-04T17:13:29.299Z,98582.52
2017-10-04T17:15:57.613Z,98586.34
2017-10-04T17:18:25.969Z,98588.45
2017-10-04T17:20:54.292Z,98574.81
2017-10-04T17:23:22.608Z,98582.91
2017-10-04T17:25:50.850Z,98595.69
2017-10-04T17:28:19.102Z,98604.66
2017-10-04T17:30:48.124Z,98611.02
2017-10-04T17:33:16.377Z,98609.29
2017-10-04T17:35:46.272Z,98596.04
2017-10-04T17:55:09.604Z,98589.23
2017-10-04T17:57:38.799Z,98589.66
2017-10-04T18:00:09.052Z,98583.66
2017-10-04T18:02:37.417Z,98575.98
2017-10-04T18:05:07.298Z,98590.92
2017-10-04T18:07:36.385Z,98583.62
2017-10-04T18:10:04.710Z,98577.25
2017-10-04T18:12:32.968Z,98581.46
2017-10-04T18:15:17.011Z,98589.58
2017-10-04T18:17:45.270Z,98602.83
2017-10-04T18:20:14.494Z,98588.27
2017-10-04T18:22:42.758Z,98590.83
2017-10-04T18:25:11.769Z,98599.36
2017-10-04T18:27:40.033Z,98603.59
2017-10-04T18:30:08.266Z,98608.30
2017-10-04T18:32:37.289Z,98598.00
2017-10-04T18:35:05.529Z,98592.45
2017-10-04T18:37:34.560Z,98596.30
2017-10-04T18:40:02.797Z,98585.66
2017-10-04T18:42:32.062Z,98579.25
2017-10-04T18:45:00.410Z,98576.27
2017-10-04T18:47:28.656Z,98585.20
2017-10-04T18:49:58.833Z,98577.05
2017-10-04T18:52:27.090Z,98573.66
2017-10-04T18:54:55.337Z,98586.00
2017-10-04T18:57:23.584Z,98575.34
2017-10-04T18:59:52.600Z,98575.80
2017-10-04T19:02:20.849Z,98560.78
2017-10-04T19:04:49.877Z,98556.58
2017-10-04T19:07:18.124Z,98553.10
2017-10-04T19:09:47.148Z,98546.73
2017-10-04T19:12:15.403Z,98539.00
2017-10-04T19:14:44.422Z,98530.47
2017-10-04T19:17:12.686Z,98528.77
2017-10-04T19:19:40.940Z,98528.77
2017-10-04T19:22:09.951Z,98530.05
2017-10-04T19:24:38.218Z,98530.53
2017-10-04T19:27:07.318Z,98534.80
2017-10-04T19:29:35.585Z,98533.55
2017-10-04T19:32:04.601Z,98536.09
2017-10-04T19:34:32.846Z,98538.66
2017-10-04T19:37:04.737Z,98539.52
2017-10-04T19:39:32.985Z,98545.96
2017-10-04T19:42:02.011Z,98552.36
2017-10-04T19:44:30.256Z,98565.55
2017-10-04T19:46:59.269Z,98572.00
2017-10-04T19:49:27.518Z,98578.83
2017-10-04T19:51:56.538Z,98566.44
2017-10-04T19:54:24.782Z,98569.84
2017-10-04T19:56:53.804Z,98559.18
2017-10-04T19:59:22.054Z,98565.18
2017-10-04T20:01:51.086Z,98565.18
2017-10-04T20:04:19.332Z,98559.61
2017-10-04T20:06:47.585Z,98562.61
2017-10-04T20:09:15.840Z,98564.77
2017-10-04T20:11:44.087Z,98572.05
2017-10-04T20:14:12.343Z,98562.22
2017-10-04T20:16:41.347Z,98561.36
2017-10-04T20:19:09.599Z,98565.20
2017-10-04T20:21:38.835Z,98568.64
2017-10-04T20:24:07.074Z,98568.19
2017-10-04T20:26:36.088Z,98558.78
2017-10-04T20:29:04.346Z,98569.05
2017-10-04T20:31:32.589Z,98573.30
2017-10-04T20:34:01.623Z,98564.77
2017-10-04T20:36:31.513Z,98558.38
2017-10-04T20:39:00.517Z,98561.34
2017-10-04T20:41:28.776Z,98560.08
2017-10-04T20:43:57.988Z,98552.80
2017-10-04T20:46:26.244Z,98550.67
2017-10-04T20:48:55.264Z,98543.84
2017-10-04T20:51:23.511Z,98551.92
2017-10-04T20:53:52.526Z,98551.08
2017-10-04T20:56:20.800Z,98555.31
2017-10-04T20:58:49.078Z,98555.32
2017-10-04T21:01:17.328Z,98549.35
2017-10-04T21:03:46.350Z,98564.70
2017-10-04T21:06:14.610Z,98555.30
2017-10-04T21:08:42.869Z,98557.00
2017-10-04T21:11:11.881Z,98563.84
2017-10-04T21:13:40.161Z,98569.39
2017-10-04T21:16:08.402Z,98564.27
2017-10-04T21:18:36.661Z,98573.69
2017-10-04T21:21:04.999Z,98562.17
2017-10-04T21:23:33.248Z,98570.28
2017-10-04T21:26:02.261Z,98561.34
2017-10-04T21:28:30.514Z,98554.94
2017-10-04T21:30:59.526Z,98556.67
2017-10-04T21:33:27.778Z,98554.09
2017-10-04T21:35:56.795Z,98551.95
2017-10-04T21:38:25.053Z,98545.98
2017-10-04T21:40:54.097Z,98534.48
2017-10-04T21:43:22.354Z,98532.78
2017-10-04T21:45:50.601Z,98531.05
2017-10-04T21:48:19.653Z,98528.06
2017-10-04T21:50:47.958Z,98535.77
2017-10-04T21:53:16.965Z,98525.50
2017-10-04T21:55:46.417Z,98500.77
2017-10-04T21:58:14.658Z,98506.28
2017-10-04T22:00:42.922Z,98515.70
2017-10-04T22:03:11.934Z,98518.23
2017-10-04T22:05:40.181Z,98516.13
2017-10-04T22:08:09.193Z,98515.28
2017-10-04T22:10:37.585Z,98517.39
2017-10-04T22:13:05.889Z,98528.06
2017-10-04T22:15:34.133Z,98519.94
2017-10-04T22:18:03.155Z,98517.41
2017-10-04T22:20:31.505Z,98513.14
2017-10-04T22:22:59.990Z,98492.20
2017-10-04T22:25:28.997Z,98497.34
2017-10-04T22:27:57.353Z,98514.41
2017-10-04T22:30:26.366Z,98520.81
2017-10-04T22:32:54.721Z,98518.68
2017-10-04T22:35:23.743Z,98510.56
2017-10-04T22:37:52.001Z,98507.16
2017-10-04T22:40:21.052Z,98491.80
2017-10-04T22:42:49.329Z,98490.95
2017-10-04T22:45:17.576Z,98490.53
2017-10-04T22:47:45.832Z,98487.94
2017-10-04T22:50:14.075Z,98477.30
2017-10-04T22:52:42.344Z,98474.30
2017-10-04T22:55:10.607Z,98462.36
2017-10-04T22:57:38.849Z,98470.88
2017-10-04T23:00:07.130Z,98474.30
2017-10-04T23:02:35.378Z,98457.67
2017-10-04T23:05:03.629Z,98458.95
2017-10-04T23:07:32.644Z,98457.69
2017-10-04T23:10:01.662Z,98446.57
2017-10-04T23:12:29.906Z,98458.10
2017-10-04T23:14:58.926Z,98452.98
2017-10-04T23:17:27.168Z,98451.28
2017-10-04T23:19:56.189Z,98453.84
2017-10-04T23:22:24.446Z,98453.00
2017-10-04T23:24:53.470Z,98456.43
2017-10-04T23:27:21.714Z,98457.67
2017-10-04T23:29:50.730Z,98453.00
2017-10-04T23:32:18.977Z,98456.00
2017-10-04T23:34:48.010Z,98450.86
2017-10-04T23:37:16.246Z,98436.80
2017-10-04T23:39:45.260Z,98436.36
2017-10-04T23:42:13.510Z,98430.80
2017-10-04T23:44:42.517Z,98426.11
2017-10-04T23:47:10.773Z,98415.02
2017-10-04T23:49:39.789Z,98420.99
2017-10-04T23:52:08.045Z,98422.70
2017-10-04T23:54:37.053Z,98412.91
2017-10-04T23:57:05.308Z,98411.62
2017-10-04T23:59:33.546Z,98403.52
